createdAt,value
2024-01-29T00:05:25.520Z,16.3
2024-01-29T00:11:22.833Z,16.3
2024-01-29T00:17:17.841Z,16.3
2024-01-29T00:23:12.810Z,16.3
2024-01-29T00:29:07.064Z,16.2
2024-01-29T00:34:47.853Z,16.2
2024-01-29T00:40:47.275Z,16.3
2024-01-29T00:46:40.996Z,16.2
2024-01-29T00:52:28.638Z,16.2
2024-01-29T00:58:22.894Z,16.2
2024-01-29T01:04:23.200Z,16.2
2024-01-29T01:10:19.076Z,16.2
2024-01-29T01:16:12.793Z,16.2
2024-01-29T01:21:53.136Z,16.2
2024-01-29T01:27:47.262Z,16.2
2024-01-29T01:33:42.015Z,16.1
2024-01-29T01:39:36.662Z,16.1
2024-01-29T01:45:33.434Z,16.2
2024-01-29T01:51:36.139Z,16.1
2024-01-29T01:57:30.416Z,16.1
2024-01-29T02:03:28.749Z,16.1
2024-01-29T02:09:24.408Z,16.1
2024-01-29T02:15:18.237Z,16.2
2024-01-29T02:21:13.520Z,16.3
2024-01-29T02:27:07.713Z,16.5
2024-01-29T02:33:03.769Z,16.9
2024-01-29T02:38:58.902Z,17.5
2024-01-29T02:44:53.402Z,18.2
2024-01-29T02:50:33.742Z,18.9
2024-01-29T02:56:28.180Z,19.7
2024-01-29T03:02:22.552Z,20.5
2024-01-29T03:08:22.371Z,21.4
2024-01-29T03:14:16.210Z,22.3
2024-01-29T03:19:58.417Z,23.1
2024-01-29T03:25:56.017Z,23.9
2024-01-29T03:31:49.948Z,24.6
2024-01-29T03:37:44.522Z,25.1
2024-01-29T03:43:23.372Z,25.4
2024-01-29T03:49:17.926Z,25.7
2024-01-29T03:55:15.386Z,25.8
2024-01-29T04:01:10.978Z,25.9
2024-01-29T04:06:53.671Z,26
2024-01-29T04:12:47.358Z,26.1
2024-01-29T04:18:45.973Z,26.1
2024-01-29T04:24:41.764Z,26.1
2024-01-29T04:30:23.299Z,26.1
2024-01-29T04:36:19.606Z,26.2
2024-01-29T04:42:14.448Z,26.2
2024-01-29T04:48:09.082Z,26.1
2024-01-29T04:53:49.519Z,26.2
2024-01-29T04:59:28.834Z,26.2
2024-01-29T05:04:57.151Z,26.1
2024-01-29T05:10:37.527Z,26.2
2024-01-29T05:16:00.478Z,26.1
2024-01-29T05:21:24.833Z,26.1
2024-01-29T05:27:22.132Z,26.1
2024-01-29T05:33:23.927Z,26.1
2024-01-29T05:38:50.030Z,26.1
2024-01-29T05:44:28.596Z,25.9
2024-01-29T05:50:08.237Z,25.6
2024-01-29T05:56:02.365Z,25.4
2024-01-29T06:01:41.578Z,25.3
2024-01-29T06:07:22.200Z,25.2
2024-01-29T06:13:05.583Z,25.1
2024-01-29T06:18:44.475Z,25.1
2024-01-29T06:25:05.293Z,25
2024-01-29T06:30:47.383Z,24.9
2024-01-29T06:36:45.161Z,24.8
2024-01-29T06:42:39.379Z,24.8
2024-01-29T06:48:36.020Z,24.8
2024-01-29T06:54:31.401Z,24.7
2024-01-29T07:00:25.323Z,24.7
2024-01-29T07:06:25.650Z,24.6
2024-01-29T07:12:20.763Z,24.6
2024-01-29T07:18:15.419Z,24.5
2024-01-29T07:24:11.345Z,24.5
2024-01-29T07:29:52.230Z,24.4
2024-01-29T07:35:47.970Z,24.4
2024-01-29T07:41:44.981Z,24.4
2024-01-29T07:47:39.570Z,24.4
2024-01-29T07:53:36.578Z,24.3
2024-01-29T07:59:31.825Z,24.3
2024-01-29T08:05:28.881Z,24.3
2024-01-29T08:11:24.397Z,24.2
2024-01-29T08:17:19.090Z,24.2
2024-01-29T08:23:20.460Z,24.1
2024-01-29T08:29:14.783Z,24.1
2024-01-29T08:35:11.920Z,24.1
2024-01-29T08:41:06.845Z,24.1
2024-01-29T08:47:03.775Z,24
2024-01-29T08:52:59.236Z,24
2024-01-29T08:58:59.566Z,23.9
2024-01-29T09:04:55.426Z,23.9
2024-01-29T09:11:01.773Z,23.9
2024-01-29T09:16:55.726Z,23.9
2024-01-29T09:22:36.707Z,23.9
2024-01-29T09:28:32.197Z,23.8
2024-01-29T09:34:41.422Z,23.8
2024-01-29T09:40:35.682Z,23.4
2024-01-29T09:46:32.709Z,23
2024-01-29T09:51:59.666Z,22.6
2024-01-29T09:57:56.919Z,22.3
2024-01-29T10:03:54.252Z,22.1
2024-01-29T10:09:35.036Z,21.8
2024-01-29T10:15:29.173Z,21.7
2024-01-29T10:21:24.647Z,22.4
2024-01-29T10:27:05.105Z,23.6
2024-01-29T10:32:29.440Z,24.6
2024-01-29T10:37:40.581Z,25.3
2024-01-29T10:43:42.035Z,25.8
2024-01-29T10:49:21.710Z,26.4
2024-01-29T10:55:02.872Z,26.8
2024-01-29T11:00:42.688Z,27
2024-01-29T11:06:33.557Z,27.1
2024-01-29T11:12:14.446Z,27.1
2024-01-29T11:17:55.498Z,27.1
2024-01-29T11:23:58.208Z,27
2024-01-29T11:29:37.165Z,27.1
2024-01-29T11:35:48.425Z,27
2024-01-29T11:41:42.755Z,27
2024-01-29T11:47:40.122Z,27
2024-01-29T11:53:49.185Z,27
2024-01-29T11:59:31.450Z,27
2024-01-29T12:05:11.393Z,26.9
2024-01-29T12:11:10.266Z,26.9
2024-01-29T12:17:04.633Z,26.9
2024-01-29T12:23:01.889Z,26.9
2024-01-29T12:28:58.670Z,26.9
2024-01-29T12:34:56.236Z,26.8
2024-01-29T12:40:38.267Z,26.8
2024-01-29T12:46:32.354Z,26.8
2024-01-29T12:52:28.783Z,26.8
2024-01-29T12:58:07.671Z,26.7
2024-01-29T13:03:53.417Z,26.7
2024-01-29T13:09:51.910Z,26.7
2024-01-29T13:15:48.200Z,26.7
2024-01-29T13:21:43.876Z,26.6
2024-01-29T13:27:25.286Z,26.6
2024-01-29T13:33:23.009Z,26.6
2024-01-29T13:39:03.745Z,26.5
2024-01-29T13:45:01.880Z,26.5
2024-01-29T13:50:58.330Z,26.4
2024-01-29T13:56:55.025Z,26.4
2024-01-29T14:02:50.038Z,26.4
2024-01-29T14:08:47.549Z,26.4
2024-01-29T14:14:57.109Z,26.3
2024-01-29T14:20:54.116Z,26.3
2024-01-29T14:26:48.984Z,26.3
2024-01-29T14:32:47.730Z,26.3
2024-01-29T14:38:45.875Z,26.3
2024-01-29T14:44:41.701Z,26.2
2024-01-29T14:50:39.901Z,26.2
2024-01-29T14:56:35.444Z,26.1
2024-01-29T15:02:32.790Z,26.1
2024-01-29T15:08:31.155Z,26.1
2024-01-29T15:14:26.024Z,26.1
2024-01-29T15:20:24.049Z,26
2024-01-29T15:26:21.692Z,26
2024-01-29T15:32:16.696Z,26
2024-01-29T15:38:11.849Z,25.9
2024-01-29T15:44:08.319Z,25.9
2024-01-29T15:50:09.078Z,25.9
2024-01-29T15:56:06.139Z,25.8
2024-01-29T16:02:01.338Z,25.8
2024-01-29T16:07:56.123Z,25.8
2024-01-29T16:13:50.480Z,25.8
2024-01-29T16:19:49.700Z,25.7
2024-01-29T16:25:44.103Z,25.7
2024-01-29T16:31:39.003Z,25.6
2024-01-29T16:37:36.108Z,25.4
2024-01-29T16:43:33.914Z,25
2024-01-29T16:49:28.832Z,24.4
2024-01-29T16:55:24.514Z,23.6
2024-01-29T17:01:21.012Z,22.9
2024-01-29T17:07:17.273Z,21.9
2024-01-29T17:13:14.856Z,20.9
2024-01-29T17:19:13.706Z,20.1
2024-01-29T17:25:08.780Z,19.5
2024-01-29T17:31:02.809Z,19
2024-01-29T17:36:59.884Z,18.6
2024-01-29T17:42:54.099Z,18.3
2024-01-29T17:48:50.788Z,18
2024-01-29T17:54:49.012Z,17.7
2024-01-29T18:00:43.856Z,17.5
2024-01-29T18:06:39.426Z,17.3
2024-01-29T18:12:18.352Z,17.1
2024-01-29T18:23:39.672Z,16.9
2024-01-29T18:29:21.197Z,16.8
2024-01-29T18:35:16.037Z,16.7
2024-01-29T18:41:10.491Z,16.6
2024-01-29T18:47:08.000Z,16.5
2024-01-29T18:53:03.120Z,16.4
2024-01-29T18:58:57.670Z,16.4
2024-01-29T19:04:57.058Z,16.3
2024-01-29T19:10:54.664Z,16.3
2024-01-29T19:16:53.389Z,16.3
2024-01-29T19:22:33.518Z,16.3
2024-01-29T19:28:11.910Z,16.2
2024-01-29T19:33:51.641Z,16.2
2024-01-29T19:39:47.750Z,16.1
2024-01-29T19:45:41.980Z,16.1
2024-01-29T19:51:39.879Z,16
2024-01-29T19:57:34.285Z,16
2024-01-29T20:03:29.786Z,15.9
2024-01-29T20:09:26.765Z,15.9
2024-01-29T20:15:21.809Z,15.9
2024-01-29T20:21:18.008Z,15.9
2024-01-29T20:27:12.250Z,15.9
2024-01-29T20:33:08.459Z,15.9
2024-01-29T20:39:05.499Z,15.8
2024-01-29T20:45:18.672Z,15.8
2024-01-29T20:51:00.492Z,15.8
2024-01-29T20:57:06.837Z,15.8
2024-01-29T21:03:01.898Z,15.8
2024-01-29T21:08:58.444Z,15.8
2024-01-29T21:14:40.403Z,15.8
2024-01-29T21:20:35.411Z,15.8
2024-01-29T21:26:30.400Z,15.8
2024-01-29T21:32:26.899Z,15.8
2024-01-29T21:38:21.605Z,15.8
2024-01-29T21:44:00.388Z,15.8
2024-01-29T21:49:55.797Z,15.8
2024-01-29T21:55:50.358Z,15.8
2024-01-29T22:01:45.274Z,15.8
2024-01-29T22:07:27.193Z,15.8
2024-01-29T22:13:06.556Z,15.8
2024-01-29T22:19:01.028Z,15.8
2024-01-29T22:24:40.980Z,15.8
2024-01-29T22:30:38.502Z,15.8
2024-01-29T22:36:33.400Z,15.8
2024-01-29T22:42:12.422Z,15.7
2024-01-29T22:48:06.725Z,15.7
2024-01-29T22:53:48.496Z,15.7
2024-01-29T22:59:27.213Z,15.7
2024-01-29T23:05:24.857Z,15.7
2024-01-29T23:11:19.626Z,15.7
2024-01-29T23:17:13.242Z,15.7
2024-01-29T23:22:53.610Z,15.6
2024-01-29T23:28:49.775Z,15.7
2024-01-29T23:34:44.735Z,15.7
2024-01-29T23:40:38.822Z,15.7
2024-01-29T23:46:32.518Z,15.7
2024-01-29T23:51:55.774Z,15.7
2024-01-29T23:57:35.110Z,15.7
